Whyteleafe, United Kingdom
Current Conditions -  °F | °C
As of 2:20 PM on Saturday 20 Dec 2014 (Local Time) from EGKB Reporting Station
Broken Clouds Broken Clouds  
Wind Chill:   Ceiling: 3000
Heat Index:   Visibility: 6mi
Dew Point:   Wind: 16mph
Humidity: 66%   Direction: 280°W
Pressure: 30.3"   Gusts: NA
Location:  51.31°N, 0.08°W
Report Text: EGKB 201420Z 28014KT 9999 BKN030 08/02 Q1026
Loading
Personal Weather Stations






























Interactive Weather Map New forecast layout! Learn more

10-Day Weather Forecast

Advertisements
Track Severe Weather on mobile